createdAt,value
2023-01-22T00:00:19.174Z,4.10
2023-01-22T00:02:49.271Z,4.27
2023-01-22T00:05:18.799Z,4.41
2023-01-22T00:07:48.151Z,4.45
2023-01-22T00:10:19.058Z,4.46
2023-01-22T00:12:48.453Z,4.39
2023-01-22T00:15:17.740Z,4.60
2023-01-22T00:17:47.051Z,4.63
2023-01-22T00:20:16.833Z,4.46
2023-01-22T00:22:46.754Z,4.53
2023-01-22T00:25:18.465Z,4.60
2023-01-22T00:27:47.436Z,4.65
2023-01-22T00:30:16.631Z,4.38
2023-01-22T00:32:47.752Z,4.63
2023-01-22T00:35:17.203Z,4.66
2023-01-22T00:37:50.053Z,4.64
2023-01-22T00:40:21.391Z,4.66
2023-01-22T00:42:50.836Z,4.45
2023-01-22T00:45:20.202Z,4.78
2023-01-22T00:47:49.094Z,4.93
2023-01-22T00:50:18.974Z,4.76
2023-01-22T00:52:48.700Z,4.78
2023-01-22T00:55:19.351Z,4.70
2023-01-22T00:57:48.348Z,4.64
2023-01-22T01:00:18.674Z,4.88
2023-01-22T01:03:04.997Z,4.95
2023-01-22T01:05:34.619Z,4.79
2023-01-22T01:08:03.411Z,4.94
2023-01-22T01:10:34.074Z,4.89
2023-01-22T01:13:02.757Z,4.99
2023-01-22T01:15:31.122Z,4.93
2023-01-22T01:17:59.649Z,5.02
2023-01-22T01:20:28.473Z,5.08
2023-01-22T01:22:57.190Z,5.14
2023-01-22T01:25:26.359Z,4.96
2023-01-22T01:27:58.158Z,5.17
2023-01-22T01:30:27.177Z,5.31
2023-01-22T01:32:56.096Z,5.12
2023-01-22T01:35:25.705Z,5.31
2023-01-22T01:37:55.359Z,5.22
2023-01-22T01:40:25.150Z,5.29
2023-01-22T01:42:55.571Z,4.99
2023-01-22T01:45:29.383Z,5.24
2023-01-22T01:48:29.999Z,5.14
2023-01-22T01:51:06.937Z,5.09
2023-01-22T01:53:36.919Z,5.21
2023-01-22T01:56:13.558Z,5.35
2023-01-22T01:58:46.659Z,5.11
2023-01-22T02:01:20.070Z,5.27
2023-01-22T02:03:49.545Z,5.31
2023-01-22T02:06:22.808Z,5.34
2023-01-22T02:08:53.776Z,5.42
2023-01-22T02:11:24.245Z,5.45
2023-01-22T02:14:01.586Z,5.41
2023-01-22T02:16:30.781Z,5.44
2023-01-22T02:18:59.570Z,5.24
2023-01-22T02:21:40.000Z,5.42
2023-01-22T02:24:12.721Z,5.47
2023-01-22T02:26:43.462Z,5.29
2023-01-22T02:29:15.122Z,5.41
2023-01-22T02:31:44.479Z,5.46
2023-01-22T02:34:13.202Z,5.36
2023-01-22T02:36:44.380Z,5.26
2023-01-22T02:39:12.793Z,5.31
2023-01-22T02:41:41.587Z,5.19
2023-01-22T02:44:10.786Z,5.48
2023-01-22T02:46:39.607Z,5.21
2023-01-22T02:49:08.248Z,5.41
2023-01-22T02:51:37.314Z,5.35
2023-01-22T02:54:07.824Z,5.12
2023-01-22T02:56:39.181Z,5.22
2023-01-22T02:59:08.006Z,5.45
2023-01-22T03:01:36.882Z,5.26
2023-01-22T03:04:11.203Z,5.37
2023-01-22T03:06:42.975Z,5.33
2023-01-22T03:09:14.745Z,4.91
2023-01-22T03:11:46.327Z,5.26
2023-01-22T03:14:33.619Z,5.06
2023-01-22T03:17:39.550Z,4.98
2023-01-22T03:20:46.275Z,5.11
2023-01-22T03:23:19.762Z,4.90
2023-01-22T03:25:59.245Z,4.62
2023-01-22T03:28:28.089Z,4.87
2023-01-22T03:30:57.457Z,4.68
2023-01-22T03:33:27.344Z,4.51
2023-01-22T03:36:02.522Z,4.63
2023-01-22T03:38:31.376Z,4.15
2023-01-22T03:41:07.374Z,4.40
2023-01-22T03:43:38.798Z,4.46
2023-01-22T03:46:11.745Z,4.42
2023-01-22T03:48:41.524Z,4.32
2023-01-22T03:51:14.716Z,4.18
2023-01-22T03:53:45.820Z,4.20
2023-01-22T03:56:18.204Z,4.26
2023-01-22T03:58:47.418Z,4.26
2023-01-22T04:01:18.596Z,4.26
2023-01-22T04:03:48.155Z,4.23
2023-01-22T04:06:18.277Z,4.21
2023-01-22T04:08:50.256Z,4.40
2023-01-22T04:11:20.650Z,4.22
2023-01-22T04:13:50.078Z,4.39
2023-01-22T04:16:39.362Z,4.41
2023-01-22T04:19:27.990Z,4.42
2023-01-22T04:22:16.713Z,4.31
2023-01-22T04:25:06.016Z,4.29
2023-01-22T04:27:56.713Z,4.19
2023-01-22T04:30:29.454Z,4.11
2023-01-22T04:32:58.561Z,4.19
2023-01-22T04:35:51.777Z,4.01
2023-01-22T04:38:40.238Z,3.92
2023-01-22T04:41:28.731Z,3.97
2023-01-22T04:44:18.946Z,3.93
2023-01-22T04:47:07.684Z,3.90
2023-01-22T04:49:56.397Z,3.93
2023-01-22T04:52:45.550Z,3.85
2023-01-22T04:55:34.583Z,4.01
2023-01-22T04:58:23.204Z,4.07
2023-01-22T05:01:13.699Z,4.19
2023-01-22T05:04:03.363Z,4.13
2023-01-22T05:06:52.784Z,4.23
2023-01-22T05:09:41.803Z,4.30
2023-01-22T05:12:30.402Z,4.19
2023-01-22T05:15:24.427Z,4.34
2023-01-22T05:18:14.997Z,4.23
2023-01-22T05:21:03.733Z,4.31
2023-01-22T05:23:52.184Z,4.61
2023-01-22T05:26:40.729Z,4.65
2023-01-22T05:29:09.952Z,4.47
2023-01-22T05:31:38.953Z,4.40
2023-01-22T05:34:09.812Z,4.33
2023-01-22T05:36:58.512Z,3.97
2023-01-22T05:39:47.016Z,4.57
2023-01-22T05:42:35.825Z,4.56
2023-01-22T05:45:24.503Z,4.47
2023-01-22T05:48:15.591Z,4.39
2023-01-22T05:51:10.569Z,4.45
2023-01-22T05:53:59.092Z,4.34
2023-01-22T05:56:27.564Z,4.58
2023-01-22T05:58:56.563Z,4.47
2023-01-22T06:01:45.058Z,4.51
2023-01-22T06:04:33.676Z,4.60
2023-01-22T06:07:23.822Z,4.29
2023-01-22T06:10:26.603Z,4.43
2023-01-22T06:13:15.444Z,4.75
2023-01-22T06:16:04.487Z,4.76
2023-01-22T06:18:52.234Z,4.87
2023-01-22T06:21:21.901Z,4.51
2023-01-22T06:23:54.984Z,4.80
2023-01-22T06:26:43.862Z,4.83
2023-01-22T06:29:32.624Z,4.64
2023-01-22T06:32:21.484Z,4.56
2023-01-22T06:35:10.890Z,4.73
2023-01-22T06:37:59.750Z,4.69
2023-01-22T06:40:55.431Z,4.60
2023-01-22T06:43:44.006Z,4.70
2023-01-22T06:46:36.255Z,4.64
2023-01-22T06:49:05.038Z,4.32
2023-01-22T06:51:35.234Z,4.60
2023-01-22T06:54:18.563Z,4.29
2023-01-22T06:56:49.655Z,4.47
2023-01-22T06:59:41.424Z,4.48
2023-01-22T07:02:31.310Z,4.62
2023-01-22T07:05:20.367Z,4.39
2023-01-22T07:08:09.189Z,4.45
2023-01-22T07:10:58.043Z,4.76
2023-01-22T07:13:50.841Z,4.76
2023-01-22T07:16:41.992Z,4.34
2023-01-22T07:19:34.817Z,4.33
2023-01-22T07:22:04.347Z,4.76
2023-01-22T07:24:52.973Z,4.80
2023-01-22T07:27:41.739Z,4.73
2023-01-22T07:30:40.542Z,4.44
2023-01-22T07:33:29.165Z,4.60
2023-01-22T07:36:02.980Z,4.44
2023-01-22T07:38:31.999Z,4.26
2023-01-22T07:41:26.059Z,4.11
2023-01-22T07:44:16.647Z,4.47
2023-01-22T07:47:06.922Z,4.53
2023-01-22T07:49:56.472Z,4.27
2023-01-22T07:52:47.040Z,4.42
2023-01-22T07:55:35.600Z,4.64
2023-01-22T07:58:09.610Z,3.92
2023-01-22T08:00:41.980Z,4.38
2023-01-22T08:03:34.104Z,4.40
2023-01-22T08:06:25.647Z,4.10
2023-01-22T08:09:15.738Z,4.32
2023-01-22T08:12:04.561Z,3.93
2023-01-22T08:14:53.435Z,4.26
2023-01-22T08:17:42.347Z,4.37
2023-01-22T08:20:34.580Z,4.35
2023-01-22T08:23:23.621Z,4.43
2023-01-22T08:25:52.301Z,4.42
2023-01-22T08:28:22.086Z,4.55
2023-01-22T08:30:51.816Z,4.52
2023-01-22T08:33:22.756Z,4.54
2023-01-22T08:36:15.199Z,4.57
2023-01-22T08:39:04.102Z,4.76
2023-01-22T08:41:57.877Z,4.73
2023-01-22T08:44:46.831Z,4.51
2023-01-22T08:47:35.842Z,4.63
2023-01-22T08:50:24.695Z,4.75
2023-01-22T08:53:19.851Z,4.62
2023-01-22T08:55:51.860Z,4.73
2023-01-22T08:58:22.414Z,4.39
2023-01-22T09:00:57.016Z,4.76
2023-01-22T09:03:26.320Z,4.62
2023-01-22T09:06:15.831Z,4.85
2023-01-22T09:09:07.624Z,4.81
2023-01-22T09:11:56.189Z,4.86
2023-01-22T09:14:44.670Z,4.80
2023-01-22T09:17:34.441Z,5.08
2023-01-22T09:20:23.709Z,4.62
2023-01-22T09:23:14.248Z,5.15
2023-01-22T09:26:06.327Z,4.85
2023-01-22T09:28:55.904Z,5.28
2023-01-22T09:31:26.979Z,5.39
2023-01-22T09:33:57.031Z,5.32
2023-01-22T09:36:27.630Z,5.06
2023-01-22T09:38:57.400Z,5.14
2023-01-22T09:41:34.206Z,4.78
2023-01-22T09:44:07.979Z,5.09
2023-01-22T09:46:44.539Z,5.14
2023-01-22T09:49:18.265Z,5.23
2023-01-22T09:51:52.010Z,5.20
2023-01-22T09:54:20.956Z,5.22
2023-01-22T09:56:54.457Z,5.46
2023-01-22T09:59:28.548Z,5.55
2023-01-22T10:02:02.947Z,5.47
2023-01-22T10:04:39.201Z,5.45
2023-01-22T10:07:14.962Z,5.52
2023-01-22T10:09:52.478Z,5.40
2023-01-22T10:12:23.124Z,5.45
2023-01-22T10:14:53.653Z,5.37
2023-01-22T10:17:26.451Z,5.55
2023-01-22T10:20:00.994Z,5.74
2023-01-22T10:22:30.268Z,5.66
2023-01-22T10:25:00.044Z,5.45
2023-01-22T10:27:39.546Z,5.80
2023-01-22T10:30:22.384Z,5.70
2023-01-22T10:33:01.662Z,5.59
2023-01-22T10:35:32.132Z,5.63
2023-01-22T10:38:01.986Z,5.74
2023-01-22T10:40:38.055Z,5.87
2023-01-22T10:43:14.961Z,5.79
2023-01-22T10:45:54.545Z,6.00
2023-01-22T10:48:24.429Z,6.11
2023-01-22T10:51:05.316Z,5.95
2023-01-22T10:53:38.232Z,6.00
2023-01-22T10:56:13.106Z,6.21
2023-01-22T10:58:49.479Z,6.00
2023-01-22T11:01:33.248Z,5.90
2023-01-22T11:04:12.505Z,6.25
2023-01-22T11:06:47.385Z,6.61
2023-01-22T11:09:21.093Z,6.21
2023-01-22T11:12:10.861Z,6.46
2023-01-22T11:14:41.165Z,6.42
2023-01-22T11:17:20.734Z,6.56
2023-01-22T11:19:58.317Z,6.31
2023-01-22T11:22:34.792Z,6.37
2023-01-22T11:25:06.270Z,6.12
2023-01-22T11:27:59.015Z,6.14
2023-01-22T11:31:18.223Z,6.30
2023-01-22T11:34:20.207Z,6.67
2023-01-22T11:36:59.462Z,6.62
2023-01-22T11:40:01.416Z,6.80
2023-01-22T11:42:48.142Z,6.52
2023-01-22T11:45:35.853Z,6.46
2023-01-22T11:48:30.918Z,6.66
2023-01-22T11:51:14.811Z,6.19
2023-01-22T11:54:12.177Z,6.45
2023-01-22T11:57:04.984Z,6.47
2023-01-22T11:59:52.497Z,6.66
2023-01-22T12:02:56.579Z,6.50
2023-01-22T12:05:41.131Z,6.38
2023-01-22T12:08:36.249Z,6.79
2023-01-22T12:11:49.966Z,6.90
2023-01-22T12:14:47.408Z,6.74
2023-01-22T12:17:33.832Z,6.50
2023-01-22T12:20:51.554Z,6.57
2023-01-22T12:23:29.125Z,6.62
2023-01-22T12:26:04.530Z,6.65
2023-01-22T12:28:42.362Z,6.71
2023-01-22T12:31:17.805Z,6.12
2023-01-22T12:33:46.841Z,6.53
2023-01-22T12:36:20.796Z,6.77
2023-01-22T12:38:58.423Z,6.71
2023-01-22T12:41:45.490Z,6.59
2023-01-22T12:44:31.648Z,6.57
2023-01-22T12:47:13.437Z,6.39
2023-01-22T12:49:50.835Z,6.38
2023-01-22T12:52:32.446Z,6.59
2023-01-22T12:55:04.036Z,6.34
2023-01-22T12:57:42.939Z,6.37
2023-01-22T13:00:26.505Z,6.18
2023-01-22T13:02:55.851Z,6.28
2023-01-22T13:05:45.544Z,6.34
2023-01-22T13:08:44.576Z,6.24
2023-01-22T13:11:28.784Z,6.46
2023-01-22T13:14:14.888Z,6.10
2023-01-22T13:16:54.095Z,6.22
2023-01-22T13:19:25.358Z,6.09
2023-01-22T13:21:54.669Z,6.26
2023-01-22T13:24:23.312Z,6.51
2023-01-22T13:26:57.305Z,6.61
2023-01-22T13:29:32.249Z,6.32
2023-01-22T13:32:03.472Z,6.31
2023-01-22T13:34:32.963Z,6.34
2023-01-22T13:37:01.757Z,6.24
2023-01-22T13:39:33.554Z,6.06
2023-01-22T13:42:06.747Z,6.19
2023-01-22T13:44:40.152Z,6.37
2023-01-22T13:47:09.171Z,6.30
2023-01-22T13:49:44.333Z,6.37
2023-01-22T13:52:16.883Z,5.90
2023-01-22T13:54:49.445Z,6.53
2023-01-22T13:57:24.465Z,6.46
2023-01-22T13:59:58.246Z,6.62
2023-01-22T14:02:31.576Z,6.65
2023-01-22T14:05:01.828Z,6.55
2023-01-22T14:07:33.951Z,6.78
2023-01-22T14:10:18.392Z,6.64
2023-01-22T14:13:00.326Z,6.69
2023-01-22T14:15:29.712Z,6.66
2023-01-22T14:18:10.200Z,6.30
2023-01-22T14:20:41.240Z,6.78
2023-01-22T14:23:10.429Z,6.61
2023-01-22T14:25:40.919Z,6.76
2023-01-22T14:28:12.094Z,6.61
2023-01-22T14:30:41.132Z,6.44
2023-01-22T14:33:13.325Z,6.50
2023-01-22T14:35:44.390Z,6.30
2023-01-22T14:38:13.241Z,6.79
2023-01-22T14:40:42.225Z,6.70
2023-01-22T14:43:12.917Z,6.47
2023-01-22T14:45:42.726Z,6.58
2023-01-22T14:48:14.421Z,6.70
2023-01-22T14:50:43.669Z,6.93
2023-01-22T14:53:14.054Z,6.89
2023-01-22T14:55:44.068Z,6.91
2023-01-22T14:58:19.348Z,6.68
2023-01-22T15:00:48.301Z,6.74
2023-01-22T15:03:17.042Z,6.80
2023-01-22T15:05:46.362Z,6.76
2023-01-22T15:08:15.743Z,6.71
2023-01-22T15:10:45.252Z,6.84
2023-01-22T15:13:16.192Z,6.66
2023-01-22T15:15:45.375Z,6.77
2023-01-22T15:18:15.038Z,6.74
2023-01-22T15:20:46.602Z,6.72
2023-01-22T15:23:15.540Z,6.67
2023-01-22T15:25:44.538Z,6.71
2023-01-22T15:28:14.857Z,6.87
2023-01-22T15:30:46.967Z,6.63
2023-01-22T15:33:16.725Z,6.61
2023-01-22T15:35:45.515Z,6.67
2023-01-22T15:38:14.323Z,6.67
2023-01-22T15:40:43.408Z,6.55
2023-01-22T15:43:12.334Z,6.29
2023-01-22T15:45:42.801Z,6.65
2023-01-22T15:48:14.280Z,6.54
2023-01-22T15:50:43.503Z,6.47
2023-01-22T15:53:12.307Z,6.60
2023-01-22T15:55:44.853Z,6.63
2023-01-22T15:58:14.142Z,6.66
2023-01-22T16:00:45.400Z,6.73
2023-01-22T16:03:14.280Z,6.55
2023-01-22T16:05:43.524Z,6.26
2023-01-22T16:08:12.521Z,6.50
2023-01-22T16:10:43.100Z,6.69
2023-01-22T16:13:12.023Z,6.61
2023-01-22T16:15:41.710Z,6.57
2023-01-22T16:18:12.365Z,6.11
2023-01-22T16:20:42.877Z,6.35
2023-01-22T16:23:12.817Z,6.54
2023-01-22T16:25:42.183Z,6.68
2023-01-22T16:28:11.524Z,6.78
2023-01-22T16:30:43.099Z,6.55
2023-01-22T16:33:24.625Z,6.57
2023-01-22T16:36:01.403Z,6.63
2023-01-22T16:38:31.637Z,6.63
2023-01-22T16:41:24.089Z,6.46
2023-01-22T16:43:59.380Z,6.55
2023-01-22T16:46:32.436Z,6.62
2023-01-22T16:49:05.630Z,6.21
2023-01-22T16:51:37.859Z,6.68
2023-01-22T16:54:08.290Z,6.65
2023-01-22T16:56:37.137Z,6.52
2023-01-22T16:59:05.864Z,6.46
2023-01-22T17:01:35.637Z,6.58
2023-01-22T17:04:10.819Z,6.68
2023-01-22T17:06:44.006Z,6.66
2023-01-22T17:09:17.361Z,6.39
2023-01-22T17:11:47.661Z,6.40
2023-01-22T17:14:19.341Z,6.64
2023-01-22T17:16:48.325Z,6.68
2023-01-22T17:19:22.708Z,6.75
2023-01-22T17:21:55.129Z,6.50
2023-01-22T17:24:23.996Z,6.65
2023-01-22T17:26:53.357Z,6.57
2023-01-22T17:29:23.361Z,6.55
2023-01-22T17:31:54.982Z,6.37
2023-01-22T17:34:25.651Z,6.37
2023-01-22T17:36:55.294Z,6.46
2023-01-22T17:39:25.608Z,6.39
2023-01-22T17:41:55.010Z,6.57
2023-01-22T17:44:26.701Z,6.65
2023-01-22T17:46:59.122Z,6.49
2023-01-22T17:49:29.404Z,6.35
2023-01-22T17:51:58.356Z,6.38
2023-01-22T17:54:27.573Z,6.44
2023-01-22T17:56:56.787Z,6.39
2023-01-22T17:59:26.866Z,6.42
2023-01-22T18:01:56.927Z,6.48
2023-01-22T18:04:26.736Z,6.64
2023-01-22T18:07:09.339Z,6.54
2023-01-22T18:09:44.960Z,6.55
2023-01-22T18:12:14.295Z,6.38
2023-01-22T18:14:46.329Z,6.39
2023-01-22T18:17:15.340Z,6.37
2023-01-22T18:19:45.174Z,6.43
2023-01-22T18:22:15.663Z,6.39
2023-01-22T18:24:45.375Z,6.50
2023-01-22T18:27:14.459Z,6.58
2023-01-22T18:29:43.259Z,6.50
2023-01-22T18:32:12.171Z,6.54
2023-01-22T18:34:40.959Z,6.46
2023-01-22T18:37:12.116Z,6.16
2023-01-22T18:39:43.597Z,6.42
2023-01-22T18:42:13.631Z,6.45
2023-01-22T18:44:44.213Z,6.21
2023-01-22T18:47:13.904Z,6.45
2023-01-22T18:49:43.189Z,6.26
2023-01-22T18:52:12.589Z,6.34
2023-01-22T18:54:42.910Z,6.33
2023-01-22T18:57:12.208Z,6.56
2023-01-22T18:59:41.834Z,6.58
2023-01-22T19:02:55.619Z,6.70
2023-01-22T19:05:30.805Z,6.73
2023-01-22T19:07:59.814Z,6.68
2023-01-22T19:10:30.864Z,6.64
2023-01-22T19:13:01.262Z,6.65
2023-01-22T19:15:32.802Z,6.86
2023-01-22T19:18:03.374Z,6.68
2023-01-22T19:20:32.527Z,6.74
2023-01-22T19:23:06.106Z,6.71
2023-01-22T19:25:37.928Z,6.77
2023-01-22T19:28:10.274Z,6.67
2023-01-22T19:30:39.215Z,6.44
2023-01-22T19:33:08.066Z,6.72
2023-01-22T19:35:37.015Z,6.80
2023-01-22T19:38:05.935Z,6.72
2023-01-22T19:40:39.554Z,6.57
2023-01-22T19:43:09.364Z,6.71
2023-01-22T19:45:38.915Z,6.66
2023-01-22T19:48:08.522Z,6.81
2023-01-22T19:50:41.376Z,6.50
2023-01-22T19:53:17.823Z,6.80
2023-01-22T19:55:47.953Z,6.62
2023-01-22T19:58:17.229Z,6.79
2023-01-22T20:00:46.642Z,6.76
2023-01-22T20:03:15.729Z,6.40
2023-01-22T20:05:46.795Z,6.67
2023-01-22T20:08:16.937Z,6.71
2023-01-22T20:10:51.214Z,6.85
2023-01-22T20:13:20.233Z,6.73
2023-01-22T20:15:49.143Z,6.54
2023-01-22T20:18:18.343Z,6.54
2023-01-22T20:20:54.342Z,6.66
2023-01-22T20:23:23.934Z,6.74
2023-01-22T20:25:55.744Z,6.78
2023-01-22T20:28:26.358Z,6.62
2023-01-22T20:31:00.732Z,6.38
2023-01-22T20:33:31.361Z,6.67
2023-01-22T20:36:03.389Z,6.73
2023-01-22T20:38:32.406Z,6.73
2023-01-22T20:41:09.280Z,6.72
2023-01-22T20:43:39.358Z,6.47
2023-01-22T20:46:12.475Z,6.79
2023-01-22T20:48:43.827Z,6.83
2023-01-22T20:51:17.005Z,6.81
2023-01-22T20:53:49.344Z,6.66
2023-01-22T20:56:23.677Z,6.84
2023-01-22T20:58:58.191Z,6.82
2023-01-22T21:01:27.657Z,6.82
2023-01-22T21:03:58.847Z,6.79
2023-01-22T21:06:31.074Z,6.94
2023-01-22T21:09:01.409Z,6.88
2023-01-22T21:11:37.321Z,6.95
2023-01-22T21:14:09.523Z,6.81
2023-01-22T21:16:44.712Z,6.78
2023-01-22T21:19:23.598Z,7.02
2023-01-22T21:21:55.708Z,6.96
2023-01-22T21:24:25.366Z,6.97
2023-01-22T21:26:56.115Z,6.91
2023-01-22T21:29:25.867Z,6.95
2023-01-22T21:31:54.845Z,6.97
2023-01-22T21:34:26.416Z,6.86
2023-01-22T21:36:58.858Z,6.87
2023-01-22T21:39:30.334Z,6.85
2023-01-22T21:42:14.904Z,6.85
2023-01-22T21:45:01.606Z,6.81
2023-01-22T21:47:31.647Z,6.97
2023-01-22T21:50:01.873Z,6.75
2023-01-22T21:52:30.734Z,6.72
2023-01-22T21:55:00.850Z,6.79
2023-01-22T21:57:31.537Z,6.93
2023-01-22T22:00:00.986Z,6.79
2023-01-22T22:02:29.991Z,6.94
2023-01-22T22:05:00.063Z,6.94
2023-01-22T22:07:29.074Z,6.83
2023-01-22T22:09:57.892Z,6.79
2023-01-22T22:12:27.810Z,6.76
2023-01-22T22:14:58.428Z,6.67
2023-01-22T22:17:27.208Z,6.77
2023-01-22T22:19:55.984Z,6.78
2023-01-22T22:22:25.119Z,6.86
2023-01-22T22:24:54.238Z,6.79
2023-01-22T22:27:26.959Z,6.84
2023-01-22T22:29:58.490Z,6.90
2023-01-22T22:32:27.311Z,6.96
2023-01-22T22:34:56.413Z,6.56
2023-01-22T22:37:25.761Z,6.81
2023-01-22T22:39:54.816Z,6.84
2023-01-22T22:42:23.543Z,6.92
2023-01-22T22:44:52.331Z,6.74
2023-01-22T22:47:22.594Z,6.76
2023-01-22T22:49:54.272Z,6.79
2023-01-22T22:52:23.017Z,6.79
2023-01-22T22:54:52.765Z,6.91
2023-01-22T22:57:21.548Z,6.87
2023-01-22T22:59:50.491Z,6.83
2023-01-22T23:02:19.291Z,6.82
2023-01-22T23:04:51.749Z,6.84
2023-01-22T23:07:20.887Z,6.82
2023-01-22T23:09:49.909Z,6.80
2023-01-22T23:12:18.896Z,6.80
2023-01-22T23:14:47.570Z,6.86
2023-01-22T23:17:16.708Z,6.84
2023-01-22T23:19:45.567Z,6.75
2023-01-22T23:22:16.181Z,6.78
2023-01-22T23:24:46.719Z,6.83
2023-01-22T23:27:15.409Z,6.82
2023-01-22T23:29:44.497Z,6.86
2023-01-22T23:32:13.292Z,6.82
2023-01-22T23:34:42.065Z,6.78
2023-01-22T23:37:10.865Z,6.77
2023-01-22T23:39:42.222Z,6.77
2023-01-22T23:42:11.513Z,6.79
2023-01-22T23:44:40.742Z,6.74
2023-01-22T23:47:09.302Z,6.72
2023-01-22T23:49:38.310Z,6.53
2023-01-22T23:52:07.624Z,6.64
2023-01-22T23:54:36.347Z,6.78
2023-01-22T23:57:06.609Z,6.75
2023-01-22T23:59:35.216Z,6.65
